sensor_id;sensor_type;location;lat;lon;timestamp;pressure;altitude;pressure_sealevel;temperature;humidity
60871;BME280;46714;50.118;14.462;2022-11-20T09:57:40;98451.53;;;-2.29;96.41
60871;BME280;46714;50.118;14.462;2022-11-20T10:00:12;98445.66;;;-2.33;95.58
60871;BME280;46714;50.118;14.462;2022-11-20T10:05:12;98433.59;;;-2.37;96.25
60871;BME280;46714;50.118;14.462;2022-11-20T10:10:43;98431.63;;;-2.35;97.63
60871;BME280;46714;50.118;14.462;2022-11-20T10:18:30;98421.97;;;-2.18;98.22
60871;BME280;46714;50.118;14.462;2022-11-20T10:21:22;98424.03;;;-2.12;98.30
60871;BME280;46714;50.118;14.462;2022-11-20T10:24:02;98406.66;;;-2.16;98.00
60871;BME280;46714;50.118;14.462;2022-11-20T10:26:39;98406.38;;;-2.13;97.94
60871;BME280;46714;50.118;14.462;2022-11-20T10:29:13;98409.72;;;-2.11;98.85
60871;BME280;46714;50.118;14.462;2022-11-20T10:31:50;98424.56;;;-2.08;97.95
60871;BME280;46714;50.118;14.462;2022-11-20T10:37:21;98423.19;;;-1.94;98.91
60871;BME280;46714;50.118;14.462;2022-11-20T10:39:47;98405.72;;;-1.88;98.01
60871;BME280;46714;50.118;14.462;2022-11-20T10:42:23;98401.75;;;-1.84;98.01
60871;BME280;46714;50.118;14.462;2022-11-20T10:45:02;98399.09;;;-1.84;97.56
60871;BME280;46714;50.118;14.462;2022-11-20T10:47:40;98412.56;;;-1.86;97.19
60871;BME280;46714;50.118;14.462;2022-11-20T10:50:08;98400.94;;;-1.85;97.36
60871;BME280;46714;50.118;14.462;2022-11-20T11:01:05;98401.84;;;-1.76;98.09
60871;BME280;46714;50.118;14.462;2022-11-20T11:03:38;98396.31;;;-1.75;97.35
60871;BME280;46714;50.118;14.462;2022-11-20T11:08:37;98380.38;;;-1.66;98.13
60871;BME280;46714;50.118;14.462;2022-11-20T11:14:07;98368.16;;;-1.51;97.05
60871;BME280;46714;50.118;14.462;2022-11-20T11:16:35;98360.78;;;-1.49;96.80
60871;BME280;46714;50.118;14.462;2022-11-20T11:19:04;98354.47;;;-1.48;96.52
60871;BME280;46714;50.118;14.462;2022-11-20T11:21:44;98353.31;;;-1.45;97.54
60871;BME280;46714;50.118;14.462;2022-11-20T11:24:22;98357.34;;;-1.41;97.58
60871;BME280;46714;50.118;14.462;2022-11-20T11:26:58;98359.56;;;-1.37;96.92
60871;BME280;46714;50.118;14.462;2022-11-20T11:29:32;98359.75;;;-1.30;98.06
60871;BME280;46714;50.118;14.462;2022-11-20T11:32:11;98371.28;;;-1.21;97.04
60871;BME280;46714;50.118;14.462;2022-11-20T11:34:42;98374.16;;;-1.15;96.79
60871;BME280;46714;50.118;14.462;2022-11-20T11:37:26;98369.69;;;-1.14;96.48
60871;BME280;46714;50.118;14.462;2022-11-20T11:40:01;98368.72;;;-1.05;96.48
60871;BME280;46714;50.118;14.462;2022-11-20T11:42:28;98363.09;;;-0.94;96.87
60871;BME280;46714;50.118;14.462;2022-11-20T11:44:54;98359.09;;;-0.81;96.45
60871;BME280;46714;50.118;14.462;2022-11-20T11:47:36;98354.94;;;-0.76;95.54
60871;BME280;46714;50.118;14.462;2022-11-20T11:55:42;98345.25;;;-0.77;94.90
60871;BME280;46714;50.118;14.462;2022-11-20T11:58:16;98357.59;;;-0.76;94.53
60871;BME280;46714;50.118;14.462;2022-11-20T12:00:51;98357.13;;;-0.71;94.83
60871;BME280;46714;50.118;14.462;2022-11-20T12:03:27;98351.63;;;-0.70;96.20
60871;BME280;46714;50.118;14.462;2022-11-20T12:06:06;98351.28;;;-0.67;96.64
60871;BME280;46714;50.118;14.462;2022-11-20T12:08:43;98355.97;;;-0.60;96.27
60871;BME280;46714;50.118;14.462;2022-11-20T12:11:16;98359.19;;;-0.57;96.96
60871;BME280;46714;50.118;14.462;2022-11-20T12:16:17;98341.47;;;-0.50;96.00
60871;BME280;46714;50.118;14.462;2022-11-20T12:18:44;98343.81;;;-0.47;96.40
60871;BME280;46714;50.118;14.462;2022-11-20T12:26:44;98315.28;;;-0.30;95.22
60871;BME280;46714;50.118;14.462;2022-11-20T12:32:01;98304.41;;;-0.20;95.94
60871;BME280;46714;50.118;14.462;2022-11-20T12:34:50;98293.38;;;-0.25;95.45
60871;BME280;46714;50.118;14.462;2022-11-20T12:40:31;98299.72;;;-0.26;95.63
60871;BME280;46714;50.118;14.462;2022-11-20T12:43:14;98300.53;;;-0.26;96.61
60871;BME280;46714;50.118;14.462;2022-11-20T13:00:12;98296.53;;;-0.22;96.90
60871;BME280;46714;50.118;14.462;2022-11-20T13:08:39;98291.69;;;-0.26;95.47
60871;BME280;46714;50.118;14.462;2022-11-20T13:14:04;98290.88;;;-0.27;96.42
60871;BME280;46714;50.118;14.462;2022-11-20T13:16:43;98282.84;;;-0.27;96.57
60871;BME280;46714;50.118;14.462;2022-11-20T13:19:12;98282.00;;;-0.27;96.41
60871;BME280;46714;50.118;14.462;2022-11-20T13:21:42;98280.31;;;-0.28;97.58
60871;BME280;46714;50.118;14.462;2022-11-20T13:29:37;98269.31;;;-0.25;97.84
60871;BME280;46714;50.118;14.462;2022-11-20T13:34:52;98259.44;;;-0.25;98.53
60871;BME280;46714;50.118;14.462;2022-11-20T13:37:58;98257.44;;;-0.23;97.81
60871;BME280;46714;50.118;14.462;2022-11-20T13:42:37;98258.94;;;-0.20;97.56
60871;BME280;46714;50.118;14.462;2022-11-20T13:45:09;98261.25;;;-0.17;98.22
60871;BME280;46714;50.118;14.462;2022-11-20T13:47:49;98261.25;;;-0.17;98.41
60871;BME280;46714;50.118;14.462;2022-11-20T13:50:16;98253.59;;;-0.20;97.71
60871;BME280;46714;50.118;14.462;2022-11-20T13:55:17;98257.44;;;-0.23;98.35
60871;BME280;46714;50.118;14.462;2022-11-20T14:00:16;98249.56;;;-0.24;98.25
60871;BME280;46714;50.118;14.462;2022-11-20T14:02:43;98252.75;;;-0.29;98.57
60871;BME280;46714;50.118;14.462;2022-11-20T14:05:21;98255.44;;;-0.29;99.22
60871;BME280;46714;50.118;14.462;2022-11-20T14:07:49;98249.94;;;-0.27;99.60
60871;BME280;46714;50.118;14.462;2022-11-20T14:10:29;98244.22;;;-0.24;99.79
60871;BME280;46714;50.118;14.462;2022-11-20T14:12:55;98246.38;;;-0.28;99.32
60871;BME280;46714;50.118;14.462;2022-11-20T14:15:30;98237.53;;;-0.28;99.38
60871;BME280;46714;50.118;14.462;2022-11-20T14:17:58;98229.53;;;-0.28;99.36
60871;BME280;46714;50.118;14.462;2022-11-20T14:20:26;98222.69;;;-0.31;99.20
60871;BME280;46714;50.118;14.462;2022-11-20T14:22:53;98242.22;;;-0.30;99.80
60871;BME280;46714;50.118;14.462;2022-11-20T14:27:50;98255.28;;;-0.27;99.76
60871;BME280;46714;50.118;14.462;2022-11-20T14:30:20;98254.94;;;-0.24;99.28
60871;BME280;46714;50.118;14.462;2022-11-20T14:32:47;98263.97;;;-0.25;99.55
60871;BME280;46714;50.118;14.462;2022-11-20T14:35:47;98259.59;;;-0.26;99.62
60871;BME280;46714;50.118;14.462;2022-11-20T14:38:16;98248.91;;;-0.26;99.35
60871;BME280;46714;50.118;14.462;2022-11-20T14:40:45;98251.59;;;-0.26;99.42
60871;BME280;46714;50.118;14.462;2022-11-20T14:43:21;98240.88;;;-0.26;99.97
60871;BME280;46714;50.118;14.462;2022-11-20T14:45:55;98243.22;;;-0.23;100.00
60871;BME280;46714;50.118;14.462;2022-11-20T14:48:44;98244.06;;;-0.23;99.62
60871;BME280;46714;50.118;14.462;2022-11-20T14:54:16;98240.53;;;-0.23;99.82
60871;BME280;46714;50.118;14.462;2022-11-20T14:56:53;98243.06;;;-0.22;100.00
60871;BME280;46714;50.118;14.462;2022-11-20T14:59:24;98241.22;;;-0.21;100.00
60871;BME280;46714;50.118;14.462;2022-11-20T15:01:55;98249.22;;;-0.21;100.00
60871;BME280;46714;50.118;14.462;2022-11-20T15:04:22;98249.56;;;-0.24;100.00
60871;BME280;46714;50.118;14.462;2022-11-20T15:06:55;98253.44;;;-0.27;99.81
60871;BME280;46714;50.118;14.462;2022-11-20T15:09:22;98252.91;;;-0.30;100.00
60871;BME280;46714;50.118;14.462;2022-11-20T15:12:02;98250.44;;;-0.32;100.00
60871;BME280;46714;50.118;14.462;2022-11-20T15:14:29;98237.56;;;-0.36;99.66
60871;BME280;46714;50.118;14.462;2022-11-20T15:16:55;98241.75;;;-0.34;100.00
60871;BME280;46714;50.118;14.462;2022-11-20T15:19:24;98245.25;;;-0.33;100.00
60871;BME280;46714;50.118;14.462;2022-11-20T15:21:51;98243.41;;;-0.33;100.00
60871;BME280;46714;50.118;14.462;2022-11-20T15:24:17;98232.38;;;-0.30;100.00
60871;BME280;46714;50.118;14.462;2022-11-20T15:26:43;98234.03;;;-0.29;100.00
60871;BME280;46714;50.118;14.462;2022-11-20T15:29:12;98231.38;;;-0.29;100.00
60871;BME280;46714;50.118;14.462;2022-11-20T15:31:43;98239.22;;;-0.27;100.00
60871;BME280;46714;50.118;14.462;2022-11-20T15:34:13;98240.88;;;-0.26;100.00
60871;BME280;46714;50.118;14.462;2022-11-20T15:36:40;98240.88;;;-0.26;100.00
60871;BME280;46714;50.118;14.462;2022-11-20T15:39:07;98243.72;;;-0.28;100.00
60871;BME280;46714;50.118;14.462;2022-11-20T15:41:33;98241.72;;;-0.26;100.00
60871;BME280;46714;50.118;14.462;2022-11-20T15:44:02;98233.69;;;-0.26;100.00
60871;BME280;46714;50.118;14.462;2022-11-20T15:46:30;98239.91;;;-0.25;100.00
60871;BME280;46714;50.118;14.462;2022-11-20T15:49:02;98234.72;;;-0.27;99.68
60871;BME280;46714;50.118;14.462;2022-11-20T15:51:31;98233.03;;;-0.28;100.00
60871;BME280;46714;50.118;14.462;2022-11-20T15:54:00;98237.06;;;-0.32;99.67
60871;BME280;46714;50.118;14.462;2022-11-20T15:56:26;98235.72;;;-0.36;100.00
60871;BME280;46714;50.118;14.462;2022-11-20T15:58:53;98241.06;;;-0.36;99.59
60871;BME280;46714;50.118;14.462;2022-11-20T16:01:20;98246.25;;;-0.34;99.64
60871;BME280;46714;50.118;14.462;2022-11-20T16:03:47;98246.41;;;-0.36;100.00
60871;BME280;46714;50.118;14.462;2022-11-20T16:06:13;98242.72;;;-0.35;100.00
60871;BME280;46714;50.118;14.462;2022-11-20T16:08:38;98247.09;;;-0.34;100.00
60871;BME280;46714;50.118;14.462;2022-11-20T16:11:04;98249.75;;;-0.34;100.00
60871;BME280;46714;50.118;14.462;2022-11-20T16:13:30;98253.41;;;-0.35;100.00
60871;BME280;46714;50.118;14.462;2022-11-20T16:16:22;98255.25;;;-0.35;100.00
60871;BME280;46714;50.118;14.462;2022-11-20T16:18:53;98244.56;;;-0.35;100.00
60871;BME280;46714;50.118;14.462;2022-11-20T16:21:18;98242.25;;;-0.38;100.00
60871;BME280;46714;50.118;14.462;2022-11-20T16:23:43;98238.91;;;-0.40;100.00
60871;BME280;46714;50.118;14.462;2022-11-20T16:26:10;98231.56;;;-0.38;100.00
60871;BME280;46714;50.118;14.462;2022-11-20T16:28:36;98234.38;;;-0.40;100.00
60871;BME280;46714;50.118;14.462;2022-11-20T16:31:09;98235.56;;;-0.43;100.00
60871;BME280;46714;50.118;14.462;2022-11-20T16:33:35;98232.06;;;-0.43;100.00
60871;BME280;46714;50.118;14.462;2022-11-20T16:36:13;98231.38;;;-0.45;100.00
60871;BME280;46714;50.118;14.462;2022-11-20T16:38:40;98235.22;;;-0.48;100.00
60871;BME280;46714;50.118;14.462;2022-11-20T16:41:05;98227.53;;;-0.51;100.00
60871;BME280;46714;50.118;14.462;2022-11-20T16:43:40;98240.22;;;-0.53;100.00
60871;BME280;46714;50.118;14.462;2022-11-20T16:46:10;98240.41;;;-0.54;100.00
60871;BME280;46714;50.118;14.462;2022-11-20T16:48:35;98241.59;;;-0.57;100.00
60871;BME280;46714;50.118;14.462;2022-11-20T16:51:00;98231.88;;;-0.58;100.00
60871;BME280;46714;50.118;14.462;2022-11-20T16:53:26;98223.19;;;-0.60;100.00
60871;BME280;46714;50.118;14.462;2022-11-20T16:55:51;98236.72;;;-0.61;100.00
60871;BME280;46714;50.118;14.462;2022-11-20T16:58:16;98230.88;;;-0.65;100.00
60871;BME280;46714;50.118;14.462;2022-11-20T17:00:42;98234.03;;;-0.70;100.00
60871;BME280;46714;50.118;14.462;2022-11-20T17:03:07;98241.38;;;-0.72;100.00
60871;BME280;46714;50.118;14.462;2022-11-20T17:05:33;98238.91;;;-0.73;100.00
60871;BME280;46714;50.118;14.462;2022-11-20T17:07:59;98236.53;;;-0.76;100.00
60871;BME280;46714;50.118;14.462;2022-11-20T17:10:25;98235.03;;;-0.79;100.00
60871;BME280;46714;50.118;14.462;2022-11-20T17:12:51;98242.06;;;-0.78;100.00
60871;BME280;46714;50.118;14.462;2022-11-20T17:15:16;98232.53;;;-0.80;100.00
60871;BME280;46714;50.118;14.462;2022-11-20T17:17:42;98235.03;;;-0.79;100.00
60871;BME280;46714;50.118;14.462;2022-11-20T17:20:08;98241.22;;;-0.78;100.00
60871;BME280;46714;50.118;14.462;2022-11-20T17:22:34;98230.53;;;-0.78;100.00
60871;BME280;46714;50.118;14.462;2022-11-20T17:24:59;98235.19;;;-0.80;100.00
60871;BME280;46714;50.118;14.462;2022-11-20T17:27:24;98237.38;;;-0.84;100.00
60871;BME280;46714;50.118;14.462;2022-11-20T17:29:50;98236.84;;;-0.88;100.00
60871;BME280;46714;50.118;14.462;2022-11-20T17:32:18;98239.53;;;-0.88;100.00
60871;BME280;46714;50.118;14.462;2022-11-20T17:34:44;98234.19;;;-0.88;100.00
60871;BME280;46714;50.118;14.462;2022-11-20T17:37:09;98236.84;;;-0.88;100.00
60871;BME280;46714;50.118;14.462;2022-11-20T17:39:35;98232.53;;;-0.89;100.00
60871;BME280;46714;50.118;14.462;2022-11-20T17:42:00;98234.88;;;-0.86;100.00
60871;BME280;46714;50.118;14.462;2022-11-20T17:44:44;98240.88;;;-0.83;100.00
60871;BME280;46714;50.118;14.462;2022-11-20T17:47:11;98236.88;;;-0.79;100.00
60871;BME280;46714;50.118;14.462;2022-11-20T17:49:36;98233.19;;;-0.78;100.00
60871;BME280;46714;50.118;14.462;2022-11-20T17:52:02;98228.53;;;-0.76;100.00
60871;BME280;46714;50.118;14.462;2022-11-20T17:54:27;98234.69;;;-0.76;100.00
60871;BME280;46714;50.118;14.462;2022-11-20T17:56:53;98229.88;;;-0.72;100.00
60871;BME280;46714;50.118;14.462;2022-11-20T17:59:37;98230.38;;;-0.69;100.00
60871;BME280;46714;50.118;14.462;2022-11-20T18:02:03;98225.69;;;-0.67;100.00
60871;BME280;46714;50.118;14.462;2022-11-20T18:04:28;98224.53;;;-0.64;100.00
60871;BME280;46714;50.118;14.462;2022-11-20T18:06:53;98235.88;;;-0.62;100.00
60871;BME280;46714;50.118;14.462;2022-11-20T18:09:19;98230.22;;;-0.59;100.00
60871;BME280;46714;50.118;14.462;2022-11-20T18:11:44;98224.88;;;-0.59;100.00
60871;BME280;46714;50.118;14.462;2022-11-20T18:14:11;98221.53;;;-0.61;100.00
60871;BME280;46714;50.118;14.462;2022-11-20T18:16:54;98222.69;;;-0.64;100.00
60871;BME280;46714;50.118;14.462;2022-11-20T18:19:22;98226.19;;;-0.63;100.00
60871;BME280;46714;50.118;14.462;2022-11-20T18:21:49;98227.84;;;-0.62;100.00
60871;BME280;46714;50.118;14.462;2022-11-20T18:24:15;98212.50;;;-0.60;100.00
60871;BME280;46714;50.118;14.462;2022-11-20T18:26:41;98213.50;;;-0.61;100.00
60871;BME280;46714;50.118;14.462;2022-11-20T18:29:06;98210.84;;;-0.61;100.00
60871;BME280;46714;50.118;14.462;2022-11-20T18:31:31;98202.97;;;-0.63;100.00
60871;BME280;46714;50.118;14.462;2022-11-20T18:33:57;98197.63;;;-0.63;100.00
60871;BME280;46714;50.118;14.462;2022-11-20T18:36:23;98184.47;;;-0.64;100.00
60871;BME280;46714;50.118;14.462;2022-11-20T18:38:51;98196.63;;;-0.70;100.00
60871;BME280;46714;50.118;14.462;2022-11-20T18:41:20;98195.28;;;-0.74;100.00
60871;BME280;46714;50.118;14.462;2022-11-20T18:44:06;98195.78;;;-0.78;100.00
60871;BME280;46714;50.118;14.462;2022-11-20T18:46:55;98185.59;;;-0.83;100.00
60871;BME280;46714;50.118;14.462;2022-11-20T18:49:20;98194.78;;;-0.86;100.00
60871;BME280;46714;50.118;14.462;2022-11-20T18:51:46;98188.78;;;-0.88;100.00
60871;BME280;46714;50.118;14.462;2022-11-20T18:54:11;98194.13;;;-0.88;100.00
60871;BME280;46714;50.118;14.462;2022-11-20T18:56:37;98197.13;;;-0.91;100.00
60871;BME280;46714;50.118;14.462;2022-11-20T18:59:03;98200.16;;;-0.94;100.00
60871;BME280;46714;50.118;14.462;2022-11-20T19:01:31;98195.13;;;-0.97;100.00
60871;BME280;46714;50.118;14.462;2022-11-20T19:03:56;98194.44;;;-0.99;100.00
60871;BME280;46714;50.118;14.462;2022-11-20T19:06:22;98199.09;;;-1.01;100.00
60871;BME280;46714;50.118;14.462;2022-11-20T19:08:48;98195.94;;;-1.04;100.00
60871;BME280;46714;50.118;14.462;2022-11-20T19:11:14;98191.94;;;-1.09;100.00
60871;BME280;46714;50.118;14.462;2022-11-20T19:13:40;98192.94;;;-1.10;100.00
60871;BME280;46714;50.118;14.462;2022-11-20T19:16:06;98194.75;;;-1.10;100.00
60871;BME280;46714;50.118;14.462;2022-11-20T19:18:34;98191.44;;;-1.12;100.00
60871;BME280;46714;50.118;14.462;2022-11-20T19:21:12;98186.25;;;-1.14;100.00
60871;BME280;46714;50.118;14.462;2022-11-20T19:23:39;98193.44;;;-1.14;100.00
60871;BME280;46714;50.118;14.462;2022-11-20T19:26:05;98189.28;;;-1.17;100.00
60871;BME280;46714;50.118;14.462;2022-11-20T19:28:31;98189.44;;;-1.18;100.00
60871;BME280;46714;50.118;14.462;2022-11-20T19:31:04;98188.75;;;-1.20;100.00
60871;BME280;46714;50.118;14.462;2022-11-20T19:33:34;98187.91;;;-1.21;100.00
60871;BME280;46714;50.118;14.462;2022-11-20T19:36:07;98184.72;;;-1.24;100.00
60871;BME280;46714;50.118;14.462;2022-11-20T19:38:36;98187.56;;;-1.26;100.00
60871;BME280;46714;50.118;14.462;2022-11-20T19:41:02;98185.38;;;-1.31;100.00
60871;BME280;46714;50.118;14.462;2022-11-20T19:43:28;98182.88;;;-1.32;100.00
60871;BME280;46714;50.118;14.462;2022-11-20T19:45:54;98186.38;;;-1.32;100.00
60871;BME280;46714;50.118;14.462;2022-11-20T19:48:19;98185.56;;;-1.32;100.00
60871;BME280;46714;50.118;14.462;2022-11-20T19:50:45;98185.72;;;-1.34;100.00
60871;BME280;46714;50.118;14.462;2022-11-20T19:53:10;98178.88;;;-1.36;100.00
60871;BME280;46714;50.118;14.462;2022-11-20T19:55:35;98189.53;;;-1.36;100.00
60871;BME280;46714;50.118;14.462;2022-11-20T19:58:01;98188.72;;;-1.37;100.00
60871;BME280;46714;50.118;14.462;2022-11-20T20:00:27;98191.19;;;-1.35;100.00
60871;BME280;46714;50.118;14.462;2022-11-20T20:02:54;98191.19;;;-1.35;100.00
60871;BME280;46714;50.118;14.462;2022-11-20T20:05:19;98193.56;;;-1.32;100.00
60871;BME280;46714;50.118;14.462;2022-11-20T20:07:45;98200.41;;;-1.30;100.00
60871;BME280;46714;50.118;14.462;2022-11-20T20:10:10;98188.56;;;-1.27;100.00
60871;BME280;46714;50.118;14.462;2022-11-20T20:12:36;98184.06;;;-1.27;100.00
60871;BME280;46714;50.118;14.462;2022-11-20T20:15:01;98188.41;;;-1.25;100.00
60871;BME280;46714;50.118;14.462;2022-11-20T20:17:26;98166.72;;;-1.22;100.00
60871;BME280;46714;50.118;14.462;2022-11-20T20:19:52;98171.72;;;-1.19;100.00
60871;BME280;46714;50.118;14.462;2022-11-20T20:22:17;98166.06;;;-1.16;100.00
60871;BME280;46714;50.118;14.462;2022-11-20T20:24:42;98172.91;;;-1.14;100.00
60871;BME280;46714;50.118;14.462;2022-11-20T20:27:08;98163.38;;;-1.08;100.00
60871;BME280;46714;50.118;14.462;2022-11-20T20:29:33;98164.06;;;-1.06;100.00
60871;BME280;46714;50.118;14.462;2022-11-20T20:31:58;98172.41;;;-1.01;100.00
60871;BME280;46714;50.118;14.462;2022-11-20T20:34:24;98172.91;;;-0.97;100.00
60871;BME280;46714;50.118;14.462;2022-11-20T20:36:53;98157.56;;;-0.95;100.00
60871;BME280;46714;50.118;14.462;2022-11-20T20:39:19;98164.25;;;-0.91;100.00
60871;BME280;46714;50.118;14.462;2022-11-20T20:41:45;98160.41;;;-0.89;100.00
60871;BME280;46714;50.118;14.462;2022-11-20T20:44:10;98168.06;;;-0.86;100.00
60871;BME280;46714;50.118;14.462;2022-11-20T20:46:54;98166.75;;;-0.81;100.00
60871;BME280;46714;50.118;14.462;2022-11-20T20:49:19;98167.25;;;-0.78;100.00
60871;BME280;46714;50.118;14.462;2022-11-20T20:51:45;98167.75;;;-0.74;100.00
60871;BME280;46714;50.118;14.462;2022-11-20T20:54:10;98166.41;;;-0.70;100.00
60871;BME280;46714;50.118;14.462;2022-11-20T20:56:36;98161.56;;;-0.67;100.00
60871;BME280;46714;50.118;14.462;2022-11-20T20:59:02;98154.03;;;-0.63;100.00
60871;BME280;46714;50.118;14.462;2022-11-20T21:01:28;98146.53;;;-0.59;100.00
60871;BME280;46714;50.118;14.462;2022-11-20T21:03:54;98143.34;;;-0.55;100.00
60871;BME280;46714;50.118;14.462;2022-11-20T21:06:20;98140.34;;;-0.52;100.00
60871;BME280;46714;50.118;14.462;2022-11-20T21:08:45;98148.00;;;-0.49;100.00
60871;BME280;46714;50.118;14.462;2022-11-20T21:11:14;98154.69;;;-0.45;100.00
60871;BME280;46714;50.118;14.462;2022-11-20T21:13:42;98143.84;;;-0.43;100.00
60871;BME280;46714;50.118;14.462;2022-11-20T21:16:09;98131.28;;;-0.43;100.00
60871;BME280;46714;50.118;14.462;2022-11-20T21:18:35;98134.63;;;-0.40;100.00
60871;BME280;46714;50.118;14.462;2022-11-20T21:21:05;98128.47;;;-0.41;100.00
60871;BME280;46714;50.118;14.462;2022-11-20T21:23:50;98114.75;;;-0.38;100.00
60871;BME280;46714;50.118;14.462;2022-11-20T21:26:17;98110.06;;;-0.36;100.00
60871;BME280;46714;50.118;14.462;2022-11-20T21:28:43;98108.22;;;-0.35;100.00
60871;BME280;46714;50.118;14.462;2022-11-20T21:31:10;98102.88;;;-0.35;100.00
60871;BME280;46714;50.118;14.462;2022-11-20T21:33:46;98091.19;;;-0.34;100.00
60871;BME280;46714;50.118;14.462;2022-11-20T21:36:14;98081.97;;;-0.32;100.00
60871;BME280;46714;50.118;14.462;2022-11-20T21:38:41;98079.13;;;-0.30;100.00
60871;BME280;46714;50.118;14.462;2022-11-20T21:41:08;98068.41;;;-0.30;100.00
60871;BME280;46714;50.118;14.462;2022-11-20T21:43:34;98080.81;;;-0.29;100.00
60871;BME280;46714;50.118;14.462;2022-11-20T21:46:10;98076.28;;;-0.29;100.00
60871;BME280;46714;50.118;14.462;2022-11-20T21:48:38;98062.75;;;-0.27;100.00
60871;BME280;46714;50.118;14.462;2022-11-20T21:51:05;98060.25;;;-0.29;100.00
60871;BME280;46714;50.118;14.462;2022-11-20T21:53:32;98052.22;;;-0.29;100.00
60871;BME280;46714;50.118;14.462;2022-11-20T21:55:58;98049.38;;;-0.27;100.00
60871;BME280;46714;50.118;14.462;2022-11-20T21:58:24;98045.03;;;-0.28;100.00
60871;BME280;46714;50.118;14.462;2022-11-20T22:00:49;98048.38;;;-0.26;100.00
60871;BME280;46714;50.118;14.462;2022-11-20T22:03:16;98047.53;;;-0.27;100.00
60871;BME280;46714;50.118;14.462;2022-11-20T22:05:42;98046.50;;;-0.26;100.00
60871;BME280;46714;50.118;14.462;2022-11-20T22:08:08;98052.72;;;-0.25;100.00
60871;BME280;46714;50.118;14.462;2022-11-20T22:10:33;98052.53;;;-0.24;100.00
60871;BME280;46714;50.118;14.462;2022-11-20T22:12:58;98047.84;;;-0.22;100.00
60871;BME280;46714;50.118;14.462;2022-11-20T22:15:43;98041.50;;;-0.20;100.00
60871;BME280;46714;50.118;14.462;2022-11-20T22:18:09;98043.97;;;-0.19;100.00
60871;BME280;46714;50.118;14.462;2022-11-20T22:20:37;98045.00;;;-0.20;100.00
60871;BME280;46714;50.118;14.462;2022-11-20T22:23:03;98042.13;;;-0.18;100.00
60871;BME280;46714;50.118;14.462;2022-11-20T22:25:29;98040.31;;;-0.18;100.00
60871;BME280;46714;50.118;14.462;2022-11-20T22:27:56;98042.78;;;-0.16;100.00
60871;BME280;46714;50.118;14.462;2022-11-20T22:30:22;98036.25;;;-0.14;100.00
60871;BME280;46714;50.118;14.462;2022-11-20T22:32:47;98036.94;;;-0.12;100.00
60871;BME280;46714;50.118;14.462;2022-11-20T22:35:12;98039.44;;;-0.10;100.00
60871;BME280;46714;50.118;14.462;2022-11-20T22:37:38;98035.94;;;-0.11;100.00
60871;BME280;46714;50.118;14.462;2022-11-20T22:40:03;98033.25;;;-0.11;100.00
60871;BME280;46714;50.118;14.462;2022-11-20T22:42:29;98018.88;;;-0.10;100.00
60871;BME280;46714;50.118;14.462;2022-11-20T22:44:54;98027.56;;;-0.08;100.00
60871;BME280;46714;50.118;14.462;2022-11-20T22:47:20;98011.34;;;-0.06;100.00
60871;BME280;46714;50.118;14.462;2022-11-20T22:49:45;98013.00;;;-0.05;100.00
60871;BME280;46714;50.118;14.462;2022-11-20T22:52:10;98011.81;;;-0.03;100.00
60871;BME280;46714;50.118;14.462;2022-11-20T22:54:36;98021.66;;;-0.03;100.00
60871;BME280;46714;50.118;14.462;2022-11-20T22:57:01;98014.47;;;-0.03;100.00
60871;BME280;46714;50.118;14.462;2022-11-20T22:59:26;98009.63;;;0.01;100.00
60871;BME280;46714;50.118;14.462;2022-11-20T23:01:52;98010.28;;;0.03;100.00
60871;BME280;46714;50.118;14.462;2022-11-20T23:04:17;97995.41;;;0.01;100.00
60871;BME280;46714;50.118;14.462;2022-11-20T23:06:42;97997.28;;;0.00;100.00
60871;BME280;46714;50.118;14.462;2022-11-20T23:09:08;97991.06;;;-0.01;100.00
60871;BME280;46714;50.118;14.462;2022-11-20T23:11:35;97996.25;;;0.01;100.00
60871;BME280;46714;50.118;14.462;2022-11-20T23:14:11;97990.72;;;0.03;100.00
60871;BME280;46714;50.118;14.462;2022-11-20T23:16:39;97992.00;;;0.07;100.00
60871;BME280;46714;50.118;14.462;2022-11-20T23:19:05;97990.66;;;0.11;100.00
60871;BME280;46714;50.118;14.462;2022-11-20T23:21:33;97998.53;;;0.12;100.00
60871;BME280;46714;50.118;14.462;2022-11-20T23:23:59;97987.81;;;0.12;100.00
60871;BME280;46714;50.118;14.462;2022-11-20T23:26:26;97986.63;;;0.15;100.00
60871;BME280;46714;50.118;14.462;2022-11-20T23:28:53;97993.63;;;0.16;100.00
60871;BME280;46714;50.118;14.462;2022-11-20T23:31:20;97988.94;;;0.18;100.00
60871;BME280;46714;50.118;14.462;2022-11-20T23:33:46;97986.09;;;0.19;100.00
60871;BME280;46714;50.118;14.462;2022-11-20T23:36:11;97967.34;;;0.19;100.00
60871;BME280;46714;50.118;14.462;2022-11-20T23:38:37;97967.34;;;0.19;100.00
60871;BME280;46714;50.118;14.462;2022-11-20T23:41:03;97966.34;;;0.20;100.00
60871;BME280;46714;50.118;14.462;2022-11-20T23:43:29;97963.50;;;0.22;100.00
60871;BME280;46714;50.118;14.462;2022-11-20T23:45:56;97968.47;;;0.25;100.00
60871;BME280;46714;50.118;14.462;2022-11-20T23:48:24;97968.31;;;0.27;100.00
60871;BME280;46714;50.118;14.462;2022-11-20T23:50:52;97967.13;;;0.29;100.00
60871;BME280;46714;50.118;14.462;2022-11-20T23:53:17;97962.59;;;0.30;100.00
60871;BME280;46714;50.118;14.462;2022-11-20T23:55:44;97958.09;;;0.30;100.00
60871;BME280;46714;50.118;14.462;2022-11-20T23:58:11;97952.72;;;0.30;100.00
